createdAt,value
2019-02-18T00:00:56.504Z,64.40
2019-02-18T00:03:26.033Z,64.40
2019-02-18T00:05:55.432Z,64.30
2019-02-18T00:08:24.841Z,64.80
2019-02-18T00:10:54.345Z,64.60
2019-02-18T00:13:23.737Z,64.70
2019-02-18T00:15:53.127Z,64.60
2019-02-18T00:18:22.774Z,64.50
2019-02-18T00:20:52.237Z,64.60
2019-02-18T00:23:21.640Z,64.10
2019-02-18T00:25:51.029Z,63.80
2019-02-18T00:28:20.466Z,63.60
2019-02-18T00:30:49.847Z,63.40
2019-02-18T00:33:19.325Z,63.40
2019-02-18T00:35:48.770Z,63.80
2019-02-18T00:38:18.193Z,63.70
2019-02-18T00:40:47.630Z,64.00
2019-02-18T00:43:17.016Z,63.80
2019-02-18T00:45:46.837Z,63.70
2019-02-18T00:48:16.782Z,63.70
2019-02-18T00:50:46.149Z,62.80
2019-02-18T00:53:15.585Z,62.70
2019-02-18T00:55:45.376Z,63.10
2019-02-18T00:58:14.788Z,62.80
2019-02-18T01:00:44.209Z,63.30
2019-02-18T01:03:13.610Z,63.30
2019-02-18T01:05:42.996Z,63.70
2019-02-18T01:08:12.770Z,63.70
2019-02-18T01:10:42.167Z,64.20
2019-02-18T01:13:11.781Z,64.30
2019-02-18T01:15:41.241Z,64.60
2019-02-18T01:18:10.694Z,64.40
2019-02-18T01:20:40.472Z,64.60
2019-02-18T01:23:10.032Z,64.60
2019-02-18T01:25:39.483Z,64.90
2019-02-18T01:28:09.012Z,64.70
2019-02-18T01:30:38.522Z,65.10
2019-02-18T01:33:08.035Z,65.80
2019-02-18T01:35:37.422Z,66.30
2019-02-18T01:38:06.834Z,67.90
2019-02-18T01:40:36.313Z,69.10
2019-02-18T01:43:05.801Z,69.50
2019-02-18T01:45:35.210Z,69.60
2019-02-18T01:48:04.672Z,70.00
2019-02-18T01:50:34.141Z,69.80
2019-02-18T01:53:03.532Z,70.00
2019-02-18T01:55:32.993Z,70.00
2019-02-18T01:58:02.402Z,70.90
2019-02-18T02:00:31.936Z,71.10
2019-02-18T02:03:01.387Z,72.40
2019-02-18T02:05:30.800Z,73.90
2019-02-18T02:08:00.654Z,73.60
2019-02-18T02:10:30.104Z,73.40
2019-02-18T02:13:27.355Z,73.60
2019-02-18T02:15:57.442Z,75.30
2019-02-18T02:18:26.831Z,75.10
2019-02-18T02:20:56.673Z,74.50
2019-02-18T02:23:26.579Z,73.30
2019-02-18T02:25:56.168Z,73.60
2019-02-18T02:28:25.622Z,74.40
2019-02-18T02:30:54.980Z,73.70
2019-02-18T02:33:24.426Z,73.60
2019-02-18T02:35:53.898Z,74.70
2019-02-18T02:38:23.369Z,75.00
2019-02-18T02:40:53.250Z,74.10
2019-02-18T02:43:22.752Z,75.00
2019-02-18T02:45:52.167Z,74.90
2019-02-18T02:48:21.724Z,74.60
2019-02-18T02:50:51.126Z,74.80
2019-02-18T02:53:20.676Z,74.60
2019-02-18T02:55:50.066Z,75.20
2019-02-18T02:58:19.489Z,74.30
2019-02-18T03:00:49.526Z,73.70
2019-02-18T03:03:18.961Z,74.30
2019-02-18T03:05:48.362Z,74.20
2019-02-18T03:08:20.707Z,75.60
2019-02-18T03:10:48.949Z,74.20
2019-02-18T03:13:18.471Z,74.60
2019-02-18T03:15:47.862Z,74.60
2019-02-18T03:18:17.771Z,74.60
2019-02-18T03:20:47.237Z,75.30
2019-02-18T03:23:16.694Z,78.60
2019-02-18T03:25:47.716Z,81.60
2019-02-18T03:28:46.193Z,80.30
2019-02-18T03:31:22.681Z,82.20
2019-02-18T03:33:56.781Z,83.20
2019-02-18T03:36:26.223Z,82.10
2019-02-18T03:38:55.748Z,83.60
2019-02-18T03:41:25.138Z,85.60
2019-02-18T03:43:54.880Z,86.30
2019-02-18T03:46:24.269Z,87.40
2019-02-18T03:48:54.038Z,87.90
2019-02-18T03:51:23.515Z,89.70
2019-02-18T03:53:52.968Z,90.20
2019-02-18T03:56:22.432Z,90.30
2019-02-18T03:58:52.021Z,90.20
2019-02-18T04:01:21.443Z,90.10
2019-02-18T04:03:50.910Z,91.00
2019-02-18T04:06:20.411Z,91.50
2019-02-18T04:08:49.838Z,91.40
2019-02-18T04:11:19.409Z,91.60
2019-02-18T04:13:48.983Z,92.70
2019-02-18T04:16:18.482Z,92.80
2019-02-18T04:18:48.095Z,93.20
2019-02-18T04:21:17.502Z,93.30
2019-02-18T04:23:46.886Z,94.20
2019-02-18T04:26:16.657Z,94.20
2019-02-18T04:28:46.130Z,94.30
2019-02-18T04:31:15.539Z,95.20
2019-02-18T04:33:45.009Z,95.80
2019-02-18T04:36:14.473Z,95.60
2019-02-18T04:38:53.823Z,95.80
2019-02-18T04:41:16.508Z,96.10
2019-02-18T04:43:45.978Z,95.80
2019-02-18T04:46:15.451Z,96.20
2019-02-18T04:48:44.890Z,95.80
2019-02-18T04:51:14.335Z,96.60
2019-02-18T04:53:44.028Z,96.50
2019-02-18T04:56:14.555Z,96.60
2019-02-18T04:58:43.898Z,97.50
2019-02-18T05:01:13.359Z,97.30
2019-02-18T05:03:42.965Z,97.70
2019-02-18T05:06:12.403Z,98.30
2019-02-18T05:08:41.817Z,98.40
2019-02-18T05:11:11.269Z,98.80
2019-02-18T05:13:41.878Z,99.10
2019-02-18T05:16:11.509Z,98.90
2019-02-18T05:18:41.140Z,99.30
2019-02-18T05:21:10.927Z,99.90
2019-02-18T05:23:40.421Z,99.80
2019-02-18T05:26:09.811Z,99.90
2019-02-18T05:28:39.240Z,99.90
2019-02-18T05:31:08.623Z,99.90
2019-02-18T05:33:38.128Z,99.80
2019-02-18T05:36:07.516Z,99.90
2019-02-18T05:38:37.018Z,99.90
2019-02-18T05:41:06.416Z,99.90
2019-02-18T05:43:36.038Z,99.90
2019-02-18T05:46:05.449Z,99.90
2019-02-18T05:48:34.856Z,99.90
2019-02-18T05:51:05.939Z,99.90
2019-02-18T05:53:36.978Z,99.90
2019-02-18T05:56:06.517Z,99.90
2019-02-18T05:58:35.933Z,99.90
2019-02-18T06:01:05.359Z,99.90
2019-02-18T06:03:34.831Z,99.90
2019-02-18T06:06:04.359Z,99.90
2019-02-18T06:08:33.760Z,99.90
2019-02-18T06:11:03.194Z,99.90
2019-02-18T06:13:32.785Z,99.90
2019-02-18T06:16:02.525Z,99.90
2019-02-18T06:18:37.171Z,99.90
2019-02-18T06:21:06.561Z,99.90
2019-02-18T06:23:35.943Z,99.90
2019-02-18T06:26:05.338Z,99.90
2019-02-18T06:28:34.887Z,99.90
2019-02-18T06:31:04.354Z,99.90
2019-02-18T06:33:33.819Z,99.90
2019-02-18T06:36:03.763Z,99.90
2019-02-18T06:38:33.339Z,99.90
2019-02-18T06:41:02.783Z,99.90
2019-02-18T06:43:32.262Z,99.90
2019-02-18T06:46:24.013Z,99.90
2019-02-18T06:48:57.894Z,99.90
2019-02-18T06:51:27.866Z,99.90
2019-02-18T06:53:57.269Z,99.90
2019-02-18T06:56:44.622Z,99.90
2019-02-18T06:59:20.705Z,99.90
2019-02-18T07:02:04.674Z,99.90
2019-02-18T07:04:56.266Z,99.90
2019-02-18T07:07:34.921Z,99.90
2019-02-18T07:10:10.110Z,99.90
2019-02-18T07:12:43.121Z,99.90
2019-02-18T07:15:12.538Z,99.90
2019-02-18T07:17:42.029Z,99.90
2019-02-18T07:20:11.450Z,99.90
2019-02-18T07:22:40.877Z,99.90
2019-02-18T07:25:10.762Z,99.90
2019-02-18T07:27:40.246Z,99.90
2019-02-18T07:30:12.569Z,99.90
2019-02-18T07:32:41.996Z,99.90
2019-02-18T07:35:11.447Z,99.90
2019-02-18T07:37:41.301Z,99.90
2019-02-18T07:40:11.354Z,99.90
2019-02-18T07:42:40.752Z,99.90
2019-02-18T07:45:10.741Z,99.90
2019-02-18T07:47:40.129Z,99.90
2019-02-18T07:50:20.018Z,99.90
2019-02-18T07:52:41.329Z,99.90
2019-02-18T07:55:10.874Z,99.90
2019-02-18T07:57:40.307Z,99.90
2019-02-18T08:00:11.932Z,99.90
2019-02-18T08:02:41.486Z,99.90
2019-02-18T08:05:11.266Z,99.90
2019-02-18T08:07:40.737Z,99.90
2019-02-18T08:10:12.351Z,99.90
2019-02-18T08:12:41.730Z,99.90
2019-02-18T08:15:11.270Z,99.90
2019-02-18T08:17:40.717Z,99.90
2019-02-18T08:20:10.291Z,99.90
2019-02-18T08:22:40.300Z,99.90
2019-02-18T08:25:10.124Z,99.90
2019-02-18T08:27:39.561Z,99.90
2019-02-18T08:30:10.511Z,99.90
2019-02-18T08:32:39.957Z,99.90
2019-02-18T08:35:09.603Z,99.90
2019-02-18T08:37:39.022Z,99.90
2019-02-18T08:40:10.869Z,99.90
2019-02-18T08:42:40.312Z,99.90
2019-02-18T08:45:11.448Z,99.90
2019-02-18T08:47:41.188Z,99.90
2019-02-18T08:50:11.700Z,99.90
2019-02-18T08:52:41.204Z,99.90
2019-02-18T08:55:11.901Z,99.90
2019-02-18T08:57:41.274Z,99.90
2019-02-18T09:00:14.029Z,99.90
2019-02-18T09:02:43.782Z,99.90
2019-02-18T09:05:13.247Z,99.90
2019-02-18T09:07:43.337Z,99.60
2019-02-18T09:10:15.343Z,99.50
2019-02-18T09:12:44.802Z,98.30
2019-02-18T09:15:14.615Z,97.70
2019-02-18T09:17:44.037Z,97.40
2019-02-18T09:20:13.920Z,97.70
2019-02-18T09:23:01.071Z,98.40
2019-02-18T09:25:49.401Z,97.40
2019-02-18T09:28:19.109Z,96.90
2019-02-18T09:30:51.820Z,96.20
2019-02-18T09:33:21.378Z,95.60
2019-02-18T09:35:50.817Z,92.50
2019-02-18T09:38:25.099Z,94.20
2019-02-18T09:40:51.737Z,94.30
2019-02-18T09:43:21.336Z,93.30
2019-02-18T09:45:50.773Z,93.60
2019-02-18T09:48:20.377Z,94.10
2019-02-18T09:50:49.798Z,92.80
2019-02-18T09:53:19.221Z,91.90
2019-02-18T09:55:48.591Z,84.80
2019-02-18T09:58:18.302Z,86.80
2019-02-18T10:00:47.741Z,88.20
2019-02-18T10:03:17.143Z,83.60
2019-02-18T10:05:46.513Z,82.60
2019-02-18T10:08:15.933Z,81.20
2019-02-18T10:10:55.083Z,74.70
2019-02-18T10:13:16.533Z,72.60
2019-02-18T10:15:45.930Z,73.30
2019-02-18T10:18:15.680Z,72.60
2019-02-18T10:20:45.190Z,71.70
2019-02-18T10:23:14.715Z,72.30
2019-02-18T10:25:44.165Z,70.30
2019-02-18T10:28:13.613Z,75.60
2019-02-18T10:30:43.054Z,75.10
2019-02-18T10:33:12.528Z,74.20
2019-02-18T10:35:41.968Z,72.30
2019-02-18T10:38:11.334Z,74.80
2019-02-18T10:40:40.767Z,74.10
2019-02-18T10:43:10.197Z,73.60
2019-02-18T10:45:39.652Z,71.00
2019-02-18T10:48:09.117Z,70.50
2019-02-18T10:50:38.583Z,70.10
2019-02-18T10:53:08.043Z,68.50
2019-02-18T10:55:37.496Z,69.80
2019-02-18T10:58:07.017Z,70.70
2019-02-18T11:00:36.749Z,72.00
2019-02-18T11:03:06.186Z,69.00
2019-02-18T11:05:35.699Z,67.30
2019-02-18T11:08:05.163Z,68.70
2019-02-18T11:10:34.578Z,69.00
2019-02-18T11:13:04.065Z,69.40
2019-02-18T11:15:33.833Z,70.20
2019-02-18T11:18:03.313Z,70.50
2019-02-18T11:20:32.668Z,73.00
2019-02-18T11:23:02.363Z,69.00
2019-02-18T11:25:31.909Z,66.70
2019-02-18T11:28:01.852Z,64.80
2019-02-18T11:30:31.313Z,64.70
2019-02-18T11:33:00.727Z,63.00
2019-02-18T11:35:30.458Z,63.10
2019-02-18T11:38:00.265Z,64.80
2019-02-18T11:40:32.073Z,64.70
2019-02-18T11:43:00.863Z,63.10
2019-02-18T11:45:30.257Z,62.50
2019-02-18T11:47:59.874Z,66.50
2019-02-18T11:50:29.339Z,69.00
2019-02-18T11:52:58.819Z,68.20
2019-02-18T11:55:28.688Z,68.40
2019-02-18T11:57:58.157Z,68.20
2019-02-18T12:00:27.616Z,67.50
2019-02-18T12:03:03.140Z,68.10
2019-02-18T12:05:31.139Z,66.60
2019-02-18T12:08:00.763Z,66.10
2019-02-18T12:10:30.165Z,66.40
2019-02-18T12:12:59.642Z,65.40
2019-02-18T12:15:29.085Z,64.60
2019-02-18T12:17:58.554Z,64.20
2019-02-18T12:20:28.093Z,64.80
2019-02-18T12:22:57.940Z,63.70
2019-02-18T12:25:27.935Z,64.70
2019-02-18T12:27:57.389Z,65.10
2019-02-18T12:30:26.900Z,64.30
2019-02-18T12:32:56.751Z,64.70
2019-02-18T12:35:31.068Z,65.00
2019-02-18T12:37:57.334Z,65.00
2019-02-18T12:40:26.864Z,65.40
2019-02-18T12:42:56.366Z,64.60
2019-02-18T12:45:25.884Z,64.90
2019-02-18T12:47:55.393Z,64.70
2019-02-18T12:50:24.890Z,63.80
2019-02-18T12:52:54.822Z,63.80
2019-02-18T12:55:24.427Z,63.10
2019-02-18T12:57:53.980Z,63.90
2019-02-18T13:00:23.454Z,62.80
2019-02-18T13:02:52.958Z,63.40
2019-02-18T13:05:22.752Z,63.20
2019-02-18T13:07:52.212Z,62.90
2019-02-18T13:10:22.090Z,63.40
2019-02-18T13:12:51.676Z,63.40
2019-02-18T13:15:21.162Z,62.80
2019-02-18T13:17:50.624Z,63.20
2019-02-18T13:20:20.178Z,62.80
2019-02-18T13:22:50.152Z,62.10
2019-02-18T13:25:19.599Z,61.80
2019-02-18T13:27:49.369Z,62.00
2019-02-18T13:30:19.042Z,62.30
2019-02-18T13:32:48.655Z,61.50
2019-02-18T13:35:18.125Z,61.70
2019-02-18T13:37:47.640Z,62.30
2019-02-18T13:40:17.653Z,62.30
2019-02-18T13:42:47.545Z,61.60
2019-02-18T13:45:17.324Z,61.30
2019-02-18T13:47:46.781Z,60.90
2019-02-18T13:50:16.715Z,61.10
2019-02-18T13:52:46.183Z,60.30
2019-02-18T13:55:15.646Z,60.50
2019-02-18T13:57:45.298Z,60.00
2019-02-18T14:00:20.814Z,59.60
2019-02-18T14:02:50.708Z,58.50
2019-02-18T14:05:20.906Z,59.20
2019-02-18T14:07:50.516Z,57.80
2019-02-18T14:10:20.661Z,58.40
2019-02-18T14:12:50.518Z,59.60
2019-02-18T14:15:21.093Z,59.00
2019-02-18T14:17:50.703Z,59.80
2019-02-18T14:20:20.547Z,59.80
2019-02-18T14:22:50.055Z,60.20
2019-02-18T14:25:19.493Z,59.90
2019-02-18T14:27:48.982Z,60.10
2019-02-18T14:30:18.505Z,60.00
2019-02-18T14:32:48.252Z,60.40
2019-02-18T14:35:18.014Z,60.90
2019-02-18T14:37:47.931Z,60.00
2019-02-18T14:40:18.249Z,60.20
2019-02-18T14:42:47.873Z,60.70
2019-02-18T14:45:17.319Z,60.70
2019-02-18T14:47:50.482Z,59.80
2019-02-18T14:50:20.342Z,58.20
2019-02-18T14:52:51.002Z,59.20
2019-02-18T14:55:20.500Z,57.60
2019-02-18T14:57:50.029Z,57.00
2019-02-18T15:00:21.344Z,58.50
2019-02-18T15:02:52.624Z,58.50
2019-02-18T15:05:22.241Z,59.50
2019-02-18T15:07:51.698Z,60.00
2019-02-18T15:10:21.237Z,61.40
2019-02-18T15:12:50.695Z,62.10
2019-02-18T15:15:20.354Z,62.80
2019-02-18T15:17:49.812Z,62.70
2019-02-18T15:20:20.102Z,63.60
2019-02-18T15:22:50.039Z,62.90
2019-02-18T15:25:19.429Z,63.20
2019-02-18T15:27:48.796Z,63.60
2019-02-18T15:30:18.386Z,63.90
2019-02-18T15:32:47.840Z,63.90
2019-02-18T15:35:18.020Z,65.20
2019-02-18T15:37:47.480Z,66.10
2019-02-18T15:40:18.882Z,66.90
2019-02-18T15:42:48.362Z,67.30
2019-02-18T15:45:18.271Z,68.30
2019-02-18T15:47:47.743Z,68.20
2019-02-18T15:50:17.165Z,68.80
2019-02-18T15:52:46.646Z,69.30
2019-02-18T15:55:16.131Z,69.90
2019-02-18T15:57:45.697Z,69.90
2019-02-18T16:00:17.823Z,70.20
2019-02-18T16:02:47.722Z,70.20
2019-02-18T16:05:17.439Z,70.00
2019-02-18T16:07:47.152Z,70.50
2019-02-18T16:10:16.533Z,70.90
2019-02-18T16:12:50.948Z,72.20
2019-02-18T16:15:17.083Z,71.60
2019-02-18T16:17:47.219Z,72.10
2019-02-18T16:20:16.673Z,72.50
2019-02-18T16:22:46.160Z,72.50
2019-02-18T16:25:17.672Z,72.90
2019-02-18T16:27:47.838Z,72.80
2019-02-18T16:30:17.437Z,72.60
2019-02-18T16:32:47.005Z,72.50
2019-02-18T16:35:16.581Z,73.20
2019-02-18T16:37:46.144Z,73.10
2019-02-18T16:40:17.268Z,73.10
2019-02-18T16:42:47.079Z,73.10
2019-02-18T16:45:16.604Z,73.10
2019-02-18T16:47:46.468Z,73.60
2019-02-18T16:50:17.120Z,73.80
2019-02-18T16:52:46.627Z,74.30
2019-02-18T16:55:16.201Z,74.20
2019-02-18T16:57:49.498Z,74.70
2019-02-18T17:00:27.775Z,75.40
2019-02-18T17:02:57.629Z,75.60
2019-02-18T17:05:27.500Z,76.00
2019-02-18T17:07:56.966Z,76.30
2019-02-18T17:10:30.374Z,76.80
2019-02-18T17:13:07.931Z,77.10
2019-02-18T17:15:34.540Z,77.30
2019-02-18T17:18:05.850Z,78.00
2019-02-18T17:20:35.670Z,78.30
2019-02-18T17:23:07.825Z,79.00
2019-02-18T17:25:38.141Z,79.00
2019-02-18T17:28:07.736Z,79.60
2019-02-18T17:30:37.313Z,79.60
2019-02-18T17:33:06.846Z,80.10
2019-02-18T17:35:36.538Z,80.20
2019-02-18T17:38:06.505Z,80.70
2019-02-18T17:40:36.284Z,81.00
2019-02-18T17:43:05.840Z,81.60
2019-02-18T17:45:36.121Z,81.70
2019-02-18T17:48:05.797Z,81.70
2019-02-18T17:50:35.250Z,81.80
2019-02-18T17:53:05.093Z,82.20
2019-02-18T17:55:34.732Z,82.30
2019-02-18T17:58:04.185Z,82.70
2019-02-18T18:00:35.073Z,82.90
2019-02-18T18:03:05.214Z,83.50
2019-02-18T18:05:34.800Z,84.10
2019-02-18T18:08:04.596Z,84.10
2019-02-18T18:10:34.489Z,85.00
2019-02-18T18:13:04.044Z,84.40
2019-02-18T18:15:33.623Z,84.90
2019-02-18T18:18:03.720Z,85.20
2019-02-18T18:20:33.190Z,85.80
2019-02-18T18:23:02.686Z,86.20
2019-02-18T18:25:32.182Z,86.80
2019-02-18T18:28:01.658Z,87.40
2019-02-18T18:30:31.214Z,87.60
2019-02-18T18:33:00.677Z,88.20
2019-02-18T18:35:30.509Z,88.30
2019-02-18T18:37:59.905Z,88.90
2019-02-18T18:40:29.442Z,89.30
2019-02-18T18:42:58.907Z,89.50
2019-02-18T18:45:28.339Z,89.70
2019-02-18T18:47:57.792Z,90.10
2019-02-18T18:50:27.978Z,90.10
2019-02-18T18:52:57.424Z,90.30
2019-02-18T18:55:27.299Z,90.50
2019-02-18T18:57:56.766Z,91.10
2019-02-18T19:00:26.780Z,91.40
2019-02-18T19:02:56.227Z,91.80
2019-02-18T19:05:25.692Z,92.10
2019-02-18T19:07:55.101Z,92.30
2019-02-18T19:10:24.576Z,92.70
2019-02-18T19:12:54.342Z,92.80
2019-02-18T19:15:23.791Z,92.80
2019-02-18T19:17:53.175Z,93.10
2019-02-18T19:20:23.129Z,93.80
2019-02-18T19:22:52.558Z,93.70
2019-02-18T19:25:22.000Z,94.10
2019-02-18T19:27:51.484Z,94.30
2019-02-18T19:30:23.559Z,94.50
2019-02-18T19:32:53.041Z,94.60
2019-02-18T19:35:22.430Z,94.40
2019-02-18T19:37:52.365Z,94.20
2019-02-18T19:40:21.732Z,94.30
2019-02-18T19:42:51.148Z,94.20
2019-02-18T19:45:21.487Z,94.50
2019-02-18T19:47:50.979Z,94.70
2019-02-18T19:50:20.459Z,94.90
2019-02-18T19:52:49.950Z,94.90
2019-02-18T19:55:19.408Z,94.80
2019-02-18T19:57:48.903Z,95.10
2019-02-18T20:00:18.908Z,95.20
2019-02-18T20:02:48.392Z,95.00
2019-02-18T20:05:18.104Z,95.00
2019-02-18T20:07:47.663Z,94.90
2019-02-18T20:10:18.624Z,94.90
2019-02-18T20:12:48.041Z,94.90
2019-02-18T20:15:17.510Z,94.80
2019-02-18T20:17:47.329Z,94.80
2019-02-18T20:20:16.778Z,94.80
2019-02-18T20:22:46.120Z,94.90
2019-02-18T20:25:15.691Z,94.70
2019-02-18T20:27:45.941Z,94.90
2019-02-18T20:30:15.520Z,95.00
2019-02-18T20:32:44.931Z,94.90
2019-02-18T20:35:14.418Z,95.00
2019-02-18T20:37:43.897Z,95.20
2019-02-18T20:40:13.515Z,95.10
2019-02-18T20:42:43.257Z,95.00
2019-02-18T20:45:12.803Z,95.10
2019-02-18T20:47:42.235Z,95.20
2019-02-18T20:50:11.874Z,95.20
2019-02-18T20:52:41.357Z,95.30
2019-02-18T20:55:11.846Z,95.50
2019-02-18T20:57:41.657Z,95.40
2019-02-18T21:00:17.068Z,95.50
2019-02-18T21:02:46.548Z,95.70
2019-02-18T21:05:16.012Z,96.00
2019-02-18T21:07:45.569Z,96.10
2019-02-18T21:10:16.113Z,96.20
2019-02-18T21:12:45.562Z,96.20
2019-02-18T21:15:15.218Z,96.30
2019-02-18T21:17:45.054Z,96.30
2019-02-18T21:20:15.105Z,96.30
2019-02-18T21:22:45.089Z,96.10
2019-02-18T21:25:14.662Z,96.30
2019-02-18T21:27:44.173Z,96.50
2019-02-18T21:30:14.860Z,96.20
2019-02-18T21:32:44.526Z,96.30
2019-02-18T21:35:15.281Z,96.30
2019-02-18T21:37:45.113Z,96.40
2019-02-18T21:40:14.694Z,96.60
2019-02-18T21:42:44.239Z,96.40
2019-02-18T21:45:16.802Z,96.80
2019-02-18T21:47:46.284Z,96.60
2019-02-18T21:50:15.764Z,96.50
2019-02-18T21:52:45.218Z,96.60
2019-02-18T21:55:14.968Z,96.50
2019-02-18T21:57:47.578Z,96.50
2019-02-18T22:00:21.067Z,96.60
2019-02-18T22:02:50.675Z,96.70
2019-02-18T22:05:20.258Z,96.70
2019-02-18T22:07:49.806Z,96.60
2019-02-18T22:10:19.449Z,96.80
2019-02-18T22:12:49.269Z,96.70
2019-02-18T22:15:18.722Z,96.70
2019-02-18T22:17:48.552Z,96.80
2019-02-18T22:20:18.267Z,96.90
2019-02-18T22:22:47.751Z,97.20
2019-02-18T22:25:17.380Z,96.90
2019-02-18T22:27:46.867Z,97.00
2019-02-18T22:30:16.335Z,97.40
2019-02-18T22:32:47.007Z,97.10
2019-02-18T22:35:16.885Z,97.20
2019-02-18T22:37:46.664Z,97.20
2019-02-18T22:40:16.118Z,97.30
2019-02-18T22:42:45.941Z,97.80
2019-02-18T22:45:15.528Z,97.60
2019-02-18T22:47:45.217Z,97.70
2019-02-18T22:50:15.176Z,97.70
2019-02-18T22:52:45.157Z,97.60
2019-02-18T22:55:14.634Z,97.30
2019-02-18T22:57:44.123Z,97.10
2019-02-18T23:00:23.584Z,97.10
2019-02-18T23:02:53.211Z,97.00
2019-02-18T23:05:22.780Z,96.80
2019-02-18T23:07:52.198Z,96.90
2019-02-18T23:10:21.717Z,97.00
2019-02-18T23:12:51.208Z,97.00
2019-02-18T23:15:21.071Z,97.00
2019-02-18T23:17:50.527Z,96.80
2019-02-18T23:20:20.071Z,96.70
2019-02-18T23:22:49.590Z,96.90
2019-02-18T23:25:19.069Z,96.50
2019-02-18T23:27:48.542Z,96.50
2019-02-18T23:30:18.049Z,96.50
2019-02-18T23:32:47.404Z,96.40
2019-02-18T23:35:17.081Z,96.40
2019-02-18T23:37:49.091Z,96.20
2019-02-18T23:40:18.958Z,96.00
2019-02-18T23:42:48.437Z,96.00
2019-02-18T23:45:17.868Z,95.80
2019-02-18T23:47:47.343Z,95.90
2019-02-18T23:50:16.696Z,95.50
2019-02-18T23:52:46.577Z,95.40
2019-02-18T23:55:15.967Z,95.30
2019-02-18T23:57:45.410Z,95.30
